sensor_id;sensor_type;location;lat;lon;timestamp;P1;durP1;ratioP1;P2;durP2;ratioP2
5823;SDS011;2938;52.254;12.988;2023-12-07T00:00:25;34.28;;;19.60;;
5823;SDS011;2938;52.254;12.988;2023-12-07T00:02:50;31.95;;;20.50;;
5823;SDS011;2938;52.254;12.988;2023-12-07T00:05:15;29.80;;;19.15;;
5823;SDS011;2938;52.254;12.988;2023-12-07T00:07:41;32.55;;;22.10;;
5823;SDS011;2938;52.254;12.988;2023-12-07T00:10:06;31.20;;;20.85;;
5823;SDS011;2938;52.254;12.988;2023-12-07T00:12:32;32.08;;;19.23;;
5823;SDS011;2938;52.254;12.988;2023-12-07T00:14:57;32.95;;;20.73;;
5823;SDS011;2938;52.254;12.988;2023-12-07T00:17:22;32.08;;;18.90;;
5823;SDS011;2938;52.254;12.988;2023-12-07T00:19:50;33.15;;;21.25;;
5823;SDS011;2938;52.254;12.988;2023-12-07T00:22:16;31.38;;;20.45;;
5823;SDS011;2938;52.254;12.988;2023-12-07T00:24:41;30.35;;;18.92;;
5823;SDS011;2938;52.254;12.988;2023-12-07T00:27:06;31.10;;;19.90;;
5823;SDS011;2938;52.254;12.988;2023-12-07T00:29:31;34.22;;;19.88;;
5823;SDS011;2938;52.254;12.988;2023-12-07T00:31:57;33.10;;;19.65;;
5823;SDS011;2938;52.254;12.988;2023-12-07T00:34:22;31.27;;;20.73;;
5823;SDS011;2938;52.254;12.988;2023-12-07T00:36:48;32.83;;;20.75;;
5823;SDS011;2938;52.254;12.988;2023-12-07T00:39:13;32.22;;;20.70;;
5823;SDS011;2938;52.254;12.988;2023-12-07T00:41:38;37.83;;;21.95;;
5823;SDS011;2938;52.254;12.988;2023-12-07T00:44:03;30.17;;;20.67;;
5823;SDS011;2938;52.254;12.988;2023-12-07T00:46:30;36.05;;;21.77;;
5823;SDS011;2938;52.254;12.988;2023-12-07T00:48:56;33.88;;;21.08;;
5823;SDS011;2938;52.254;12.988;2023-12-07T00:51:21;29.10;;;18.55;;
5823;SDS011;2938;52.254;12.988;2023-12-07T00:53:46;30.80;;;20.33;;
5823;SDS011;2938;52.254;12.988;2023-12-07T00:56:12;29.50;;;19.85;;
5823;SDS011;2938;52.254;12.988;2023-12-07T00:58:37;33.42;;;20.70;;
5823;SDS011;2938;52.254;12.988;2023-12-07T01:01:03;31.08;;;19.88;;
5823;SDS011;2938;52.254;12.988;2023-12-07T01:03:30;36.35;;;22.00;;
5823;SDS011;2938;52.254;12.988;2023-12-07T01:05:55;31.27;;;19.30;;
5823;SDS011;2938;52.254;12.988;2023-12-07T01:08:21;29.00;;;20.27;;
5823;SDS011;2938;52.254;12.988;2023-12-07T01:10:46;32.60;;;20.17;;
5823;SDS011;2938;52.254;12.988;2023-12-07T01:13:11;31.65;;;21.15;;
5823;SDS011;2938;52.254;12.988;2023-12-07T01:15:37;32.90;;;21.13;;
5823;SDS011;2938;52.254;12.988;2023-12-07T01:18:02;31.77;;;20.77;;
5823;SDS011;2938;52.254;12.988;2023-12-07T01:20:28;32.60;;;20.50;;
5823;SDS011;2938;52.254;12.988;2023-12-07T01:22:53;30.27;;;20.00;;
5823;SDS011;2938;52.254;12.988;2023-12-07T01:25:18;32.83;;;20.08;;
5823;SDS011;2938;52.254;12.988;2023-12-07T01:27:46;33.88;;;22.50;;
5823;SDS011;2938;52.254;12.988;2023-12-07T01:30:11;29.20;;;19.65;;
5823;SDS011;2938;52.254;12.988;2023-12-07T01:32:37;31.58;;;21.42;;
5823;SDS011;2938;52.254;12.988;2023-12-07T01:35:02;31.35;;;21.35;;
5823;SDS011;2938;52.254;12.988;2023-12-07T01:37:30;34.92;;;22.92;;
5823;SDS011;2938;52.254;12.988;2023-12-07T01:39:56;31.77;;;20.00;;
5823;SDS011;2938;52.254;12.988;2023-12-07T01:42:21;32.58;;;21.17;;
5823;SDS011;2938;52.254;12.988;2023-12-07T01:44:47;33.08;;;22.38;;
5823;SDS011;2938;52.254;12.988;2023-12-07T01:47:12;31.70;;;21.02;;
5823;SDS011;2938;52.254;12.988;2023-12-07T01:49:37;35.92;;;22.48;;
5823;SDS011;2938;52.254;12.988;2023-12-07T01:52:03;38.33;;;21.33;;
5823;SDS011;2938;52.254;12.988;2023-12-07T01:54:29;32.53;;;21.33;;
5823;SDS011;2938;52.254;12.988;2023-12-07T01:56:55;34.13;;;20.95;;
5823;SDS011;2938;52.254;12.988;2023-12-07T01:59:22;32.25;;;23.27;;
5823;SDS011;2938;52.254;12.988;2023-12-07T02:01:47;33.90;;;22.83;;
5823;SDS011;2938;52.254;12.988;2023-12-07T02:04:13;33.60;;;22.67;;
5823;SDS011;2938;52.254;12.988;2023-12-07T02:06:38;28.92;;;20.30;;
5823;SDS011;2938;52.254;12.988;2023-12-07T02:09:03;35.05;;;22.25;;
5823;SDS011;2938;52.254;12.988;2023-12-07T02:11:29;34.05;;;21.05;;
5823;SDS011;2938;52.254;12.988;2023-12-07T02:13:54;33.13;;;21.15;;
5823;SDS011;2938;52.254;12.988;2023-12-07T02:16:25;35.10;;;22.45;;
5823;SDS011;2938;52.254;12.988;2023-12-07T02:21:59;34.10;;;22.25;;
5823;SDS011;2938;52.254;12.988;2023-12-07T02:24:25;36.45;;;22.90;;
5823;SDS011;2938;52.254;12.988;2023-12-07T02:26:53;35.55;;;23.08;;
5823;SDS011;2938;52.254;12.988;2023-12-07T02:29:18;32.83;;;22.40;;
5823;SDS011;2938;52.254;12.988;2023-12-07T02:31:43;35.80;;;22.33;;
5823;SDS011;2938;52.254;12.988;2023-12-07T02:34:09;35.92;;;22.10;;
5823;SDS011;2938;52.254;12.988;2023-12-07T02:36:34;34.53;;;21.20;;
5823;SDS011;2938;52.254;12.988;2023-12-07T02:39:03;35.22;;;22.00;;
5823;SDS011;2938;52.254;12.988;2023-12-07T02:41:30;33.55;;;20.08;;
5823;SDS011;2938;52.254;12.988;2023-12-07T02:43:56;37.63;;;23.58;;
5823;SDS011;2938;52.254;12.988;2023-12-07T02:46:22;35.60;;;22.95;;
5823;SDS011;2938;52.254;12.988;2023-12-07T02:48:48;39.30;;;24.05;;
5823;SDS011;2938;52.254;12.988;2023-12-07T02:51:13;41.63;;;24.98;;
5823;SDS011;2938;52.254;12.988;2023-12-07T02:53:38;37.83;;;23.33;;
5823;SDS011;2938;52.254;12.988;2023-12-07T02:56:04;39.83;;;22.33;;
5823;SDS011;2938;52.254;12.988;2023-12-07T02:58:30;34.10;;;21.67;;
5823;SDS011;2938;52.254;12.988;2023-12-07T03:00:55;40.38;;;25.70;;
5823;SDS011;2938;52.254;12.988;2023-12-07T03:03:20;41.45;;;23.80;;
5823;SDS011;2938;52.254;12.988;2023-12-07T03:05:48;42.30;;;22.48;;
5823;SDS011;2938;52.254;12.988;2023-12-07T03:08:13;41.22;;;24.05;;
5823;SDS011;2938;52.254;12.988;2023-12-07T03:10:38;41.58;;;25.85;;
5823;SDS011;2938;52.254;12.988;2023-12-07T03:13:04;44.53;;;25.60;;
5823;SDS011;2938;52.254;12.988;2023-12-07T03:15:29;37.05;;;23.70;;
5823;SDS011;2938;52.254;12.988;2023-12-07T03:17:54;41.55;;;24.23;;
5823;SDS011;2938;52.254;12.988;2023-12-07T03:20:20;40.95;;;24.50;;
5823;SDS011;2938;52.254;12.988;2023-12-07T03:22:46;47.08;;;27.60;;
5823;SDS011;2938;52.254;12.988;2023-12-07T03:25:11;41.55;;;25.70;;
5823;SDS011;2938;52.254;12.988;2023-12-07T03:27:36;44.13;;;26.45;;
5823;SDS011;2938;52.254;12.988;2023-12-07T03:30:02;42.90;;;25.83;;
5823;SDS011;2938;52.254;12.988;2023-12-07T03:32:28;45.20;;;26.55;;
5823;SDS011;2938;52.254;12.988;2023-12-07T03:34:53;38.75;;;25.55;;
5823;SDS011;2938;52.254;12.988;2023-12-07T03:37:18;48.17;;;27.27;;
5823;SDS011;2938;52.254;12.988;2023-12-07T03:39:43;47.67;;;27.20;;
5823;SDS011;2938;52.254;12.988;2023-12-07T03:42:09;45.83;;;26.60;;
5823;SDS011;2938;52.254;12.988;2023-12-07T03:44:34;47.58;;;27.38;;
5823;SDS011;2938;52.254;12.988;2023-12-07T03:47:00;42.80;;;25.60;;
5823;SDS011;2938;52.254;12.988;2023-12-07T03:49:26;45.70;;;26.83;;
5823;SDS011;2938;52.254;12.988;2023-12-07T03:51:51;41.85;;;26.27;;
5823;SDS011;2938;52.254;12.988;2023-12-07T03:54:16;44.95;;;26.88;;
5823;SDS011;2938;52.254;12.988;2023-12-07T03:56:42;48.42;;;25.55;;
5823;SDS011;2938;52.254;12.988;2023-12-07T03:59:07;44.80;;;27.27;;
5823;SDS011;2938;52.254;12.988;2023-12-07T04:01:32;45.88;;;26.20;;
5823;SDS011;2938;52.254;12.988;2023-12-07T04:03:58;43.35;;;26.15;;
5823;SDS011;2938;52.254;12.988;2023-12-07T04:06:24;44.05;;;27.35;;
5823;SDS011;2938;52.254;12.988;2023-12-07T04:08:49;45.40;;;26.60;;
5823;SDS011;2938;52.254;12.988;2023-12-07T04:11:15;40.03;;;24.33;;
5823;SDS011;2938;52.254;12.988;2023-12-07T04:13:41;42.78;;;26.10;;
5823;SDS011;2938;52.254;12.988;2023-12-07T04:16:06;47.30;;;28.15;;
5823;SDS011;2938;52.254;12.988;2023-12-07T04:18:32;56.80;;;29.70;;
5823;SDS011;2938;52.254;12.988;2023-12-07T04:20:57;49.10;;;28.48;;
5823;SDS011;2938;52.254;12.988;2023-12-07T04:23:24;46.08;;;27.35;;
5823;SDS011;2938;52.254;12.988;2023-12-07T04:25:49;45.15;;;25.92;;
5823;SDS011;2938;52.254;12.988;2023-12-07T04:28:15;42.30;;;26.10;;
5823;SDS011;2938;52.254;12.988;2023-12-07T04:30:40;41.95;;;26.23;;
5823;SDS011;2938;52.254;12.988;2023-12-07T04:33:08;50.45;;;27.88;;
5823;SDS011;2938;52.254;12.988;2023-12-07T04:35:34;46.60;;;25.90;;
5823;SDS011;2938;52.254;12.988;2023-12-07T04:37:59;47.88;;;30.05;;
5823;SDS011;2938;52.254;12.988;2023-12-07T04:40:25;48.05;;;27.45;;
5823;SDS011;2938;52.254;12.988;2023-12-07T04:42:50;45.90;;;27.45;;
5823;SDS011;2938;52.254;12.988;2023-12-07T04:45:15;46.28;;;26.73;;
5823;SDS011;2938;52.254;12.988;2023-12-07T04:47:41;55.72;;;28.25;;
5823;SDS011;2938;52.254;12.988;2023-12-07T04:50:06;41.75;;;25.33;;
5823;SDS011;2938;52.254;12.988;2023-12-07T04:52:32;47.47;;;27.20;;
5823;SDS011;2938;52.254;12.988;2023-12-07T04:54:57;43.88;;;27.33;;
5823;SDS011;2938;52.254;12.988;2023-12-07T04:57:23;49.83;;;26.73;;
5823;SDS011;2938;52.254;12.988;2023-12-07T04:59:48;53.60;;;28.88;;
5823;SDS011;2938;52.254;12.988;2023-12-07T05:02:14;46.45;;;27.20;;
5823;SDS011;2938;52.254;12.988;2023-12-07T05:04:40;55.33;;;29.55;;
5823;SDS011;2938;52.254;12.988;2023-12-07T05:07:05;46.58;;;26.88;;
5823;SDS011;2938;52.254;12.988;2023-12-07T05:09:30;49.03;;;27.35;;
5823;SDS011;2938;52.254;12.988;2023-12-07T05:11:56;49.53;;;27.20;;
5823;SDS011;2938;52.254;12.988;2023-12-07T05:14:21;49.03;;;27.40;;
5823;SDS011;2938;52.254;12.988;2023-12-07T05:16:47;47.55;;;26.08;;
5823;SDS011;2938;52.254;12.988;2023-12-07T05:19:13;44.03;;;26.40;;
5823;SDS011;2938;52.254;12.988;2023-12-07T05:21:38;47.83;;;28.67;;
5823;SDS011;2938;52.254;12.988;2023-12-07T05:24:04;47.63;;;26.90;;
5823;SDS011;2938;52.254;12.988;2023-12-07T05:26:29;51.60;;;27.38;;
5823;SDS011;2938;52.254;12.988;2023-12-07T05:28:57;49.55;;;28.80;;
5823;SDS011;2938;52.254;12.988;2023-12-07T05:31:24;50.08;;;27.55;;
5823;SDS011;2938;52.254;12.988;2023-12-07T05:33:49;55.83;;;30.52;;
5823;SDS011;2938;52.254;12.988;2023-12-07T05:36:14;54.83;;;28.63;;
5823;SDS011;2938;52.254;12.988;2023-12-07T05:38:39;48.50;;;26.38;;
5823;SDS011;2938;52.254;12.988;2023-12-07T05:41:05;55.00;;;28.77;;
5823;SDS011;2938;52.254;12.988;2023-12-07T05:43:30;51.03;;;29.10;;
5823;SDS011;2938;52.254;12.988;2023-12-07T05:45:56;48.88;;;28.67;;
5823;SDS011;2938;52.254;12.988;2023-12-07T05:48:21;47.40;;;27.60;;
5823;SDS011;2938;52.254;12.988;2023-12-07T05:50:46;49.53;;;29.55;;
5823;SDS011;2938;52.254;12.988;2023-12-07T05:53:12;47.40;;;28.25;;
5823;SDS011;2938;52.254;12.988;2023-12-07T05:55:38;44.70;;;26.80;;
5823;SDS011;2938;52.254;12.988;2023-12-07T05:58:03;52.45;;;27.77;;
5823;SDS011;2938;52.254;12.988;2023-12-07T06:00:29;51.45;;;29.15;;
5823;SDS011;2938;52.254;12.988;2023-12-07T06:02:54;51.22;;;26.25;;
5823;SDS011;2938;52.254;12.988;2023-12-07T06:05:20;55.22;;;28.73;;
5823;SDS011;2938;52.254;12.988;2023-12-07T06:07:46;44.15;;;26.00;;
5823;SDS011;2938;52.254;12.988;2023-12-07T06:10:11;48.45;;;27.50;;
5823;SDS011;2938;52.254;12.988;2023-12-07T06:12:37;56.60;;;29.27;;
5823;SDS011;2938;52.254;12.988;2023-12-07T06:15:02;45.67;;;27.23;;
5823;SDS011;2938;52.254;12.988;2023-12-07T06:17:28;62.35;;;30.08;;
5823;SDS011;2938;52.254;12.988;2023-12-07T06:19:54;59.25;;;30.05;;
5823;SDS011;2938;52.254;12.988;2023-12-07T06:22:19;53.03;;;28.02;;
5823;SDS011;2938;52.254;12.988;2023-12-07T06:24:44;50.05;;;27.52;;
5823;SDS011;2938;52.254;12.988;2023-12-07T06:27:10;48.60;;;27.77;;
5823;SDS011;2938;52.254;12.988;2023-12-07T06:29:35;60.70;;;32.28;;
5823;SDS011;2938;52.254;12.988;2023-12-07T06:32:01;57.13;;;30.02;;
5823;SDS011;2938;52.254;12.988;2023-12-07T06:34:26;47.80;;;27.65;;
5823;SDS011;2938;52.254;12.988;2023-12-07T06:36:52;52.83;;;30.40;;
5823;SDS011;2938;52.254;12.988;2023-12-07T06:39:18;49.17;;;26.95;;
5823;SDS011;2938;52.254;12.988;2023-12-07T06:41:43;59.35;;;31.10;;
5823;SDS011;2938;52.254;12.988;2023-12-07T06:44:09;49.08;;;25.90;;
5823;SDS011;2938;52.254;12.988;2023-12-07T06:46:34;57.97;;;30.70;;
5823;SDS011;2938;52.254;12.988;2023-12-07T06:48:59;59.92;;;31.30;;
5823;SDS011;2938;52.254;12.988;2023-12-07T06:51:25;55.63;;;30.05;;
5823;SDS011;2938;52.254;12.988;2023-12-07T06:53:50;53.38;;;30.52;;
5823;SDS011;2938;52.254;12.988;2023-12-07T06:56:16;54.42;;;29.00;;
5823;SDS011;2938;52.254;12.988;2023-12-07T06:58:41;49.30;;;29.55;;
5823;SDS011;2938;52.254;12.988;2023-12-07T07:01:07;49.95;;;28.40;;
5823;SDS011;2938;52.254;12.988;2023-12-07T07:03:32;50.38;;;28.25;;
5823;SDS011;2938;52.254;12.988;2023-12-07T07:05:58;60.88;;;32.45;;
5823;SDS011;2938;52.254;12.988;2023-12-07T07:08:24;57.58;;;30.42;;
5823;SDS011;2938;52.254;12.988;2023-12-07T07:10:52;59.38;;;29.55;;
5823;SDS011;2938;52.254;12.988;2023-12-07T07:13:17;59.83;;;32.42;;
5823;SDS011;2938;52.254;12.988;2023-12-07T07:15:45;52.58;;;30.33;;
5823;SDS011;2938;52.254;12.988;2023-12-07T07:18:10;60.55;;;32.20;;
5823;SDS011;2938;52.254;12.988;2023-12-07T07:20:36;53.17;;;28.80;;
5823;SDS011;2938;52.254;12.988;2023-12-07T07:23:05;57.17;;;29.50;;
5823;SDS011;2938;52.254;12.988;2023-12-07T07:25:30;63.85;;;34.05;;
5823;SDS011;2938;52.254;12.988;2023-12-07T07:27:56;52.85;;;29.23;;
5823;SDS011;2938;52.254;12.988;2023-12-07T07:30:21;54.55;;;28.40;;
5823;SDS011;2938;52.254;12.988;2023-12-07T07:32:47;57.70;;;30.17;;
5823;SDS011;2938;52.254;12.988;2023-12-07T07:35:13;52.33;;;29.45;;
5823;SDS011;2938;52.254;12.988;2023-12-07T07:37:39;58.97;;;31.77;;
5823;SDS011;2938;52.254;12.988;2023-12-07T07:40:04;61.10;;;31.35;;
5823;SDS011;2938;52.254;12.988;2023-12-07T07:42:32;59.78;;;29.80;;
5823;SDS011;2938;52.254;12.988;2023-12-07T07:44:57;55.50;;;30.60;;
5823;SDS011;2938;52.254;12.988;2023-12-07T07:47:23;59.45;;;31.23;;
5823;SDS011;2938;52.254;12.988;2023-12-07T07:49:48;58.00;;;30.30;;
5823;SDS011;2938;52.254;12.988;2023-12-07T07:52:14;57.67;;;32.00;;
5823;SDS011;2938;52.254;12.988;2023-12-07T07:54:39;54.65;;;30.35;;
5823;SDS011;2938;52.254;12.988;2023-12-07T07:57:05;58.85;;;32.03;;
5823;SDS011;2938;52.254;12.988;2023-12-07T07:59:31;49.75;;;29.50;;
5823;SDS011;2938;52.254;12.988;2023-12-07T08:01:56;47.85;;;26.58;;
5823;SDS011;2938;52.254;12.988;2023-12-07T08:04:22;58.05;;;29.83;;
5823;SDS011;2938;52.254;12.988;2023-12-07T08:06:47;53.95;;;27.70;;
5823;SDS011;2938;52.254;12.988;2023-12-07T08:09:13;55.92;;;29.75;;
5823;SDS011;2938;52.254;12.988;2023-12-07T08:11:39;52.35;;;30.55;;
5823;SDS011;2938;52.254;12.988;2023-12-07T08:14:04;52.83;;;32.50;;
5823;SDS011;2938;52.254;12.988;2023-12-07T08:16:29;53.70;;;29.92;;
5823;SDS011;2938;52.254;12.988;2023-12-07T08:18:56;57.97;;;29.65;;
5823;SDS011;2938;52.254;12.988;2023-12-07T08:21:21;49.97;;;28.77;;
5823;SDS011;2938;52.254;12.988;2023-12-07T08:23:47;51.25;;;29.65;;
5823;SDS011;2938;52.254;12.988;2023-12-07T08:26:12;55.05;;;30.13;;
5823;SDS011;2938;52.254;12.988;2023-12-07T08:28:39;51.45;;;29.38;;
5823;SDS011;2938;52.254;12.988;2023-12-07T08:31:05;50.60;;;30.60;;
5823;SDS011;2938;52.254;12.988;2023-12-07T08:33:31;58.33;;;32.45;;
5823;SDS011;2938;52.254;12.988;2023-12-07T08:35:57;58.90;;;30.35;;
5823;SDS011;2938;52.254;12.988;2023-12-07T08:38:22;61.22;;;31.70;;
5823;SDS011;2938;52.254;12.988;2023-12-07T08:40:47;55.35;;;31.38;;
5823;SDS011;2938;52.254;12.988;2023-12-07T08:43:13;63.22;;;34.00;;
5823;SDS011;2938;52.254;12.988;2023-12-07T08:45:38;61.83;;;32.95;;
5823;SDS011;2938;52.254;12.988;2023-12-07T08:48:04;58.90;;;32.08;;
5823;SDS011;2938;52.254;12.988;2023-12-07T08:50:30;60.30;;;32.60;;
5823;SDS011;2938;52.254;12.988;2023-12-07T08:52:55;57.05;;;30.83;;
5823;SDS011;2938;52.254;12.988;2023-12-07T08:55:20;55.25;;;32.95;;
5823;SDS011;2938;52.254;12.988;2023-12-07T08:57:46;55.10;;;30.65;;
5823;SDS011;2938;52.254;12.988;2023-12-07T09:00:11;58.88;;;32.03;;
5823;SDS011;2938;52.254;12.988;2023-12-07T09:02:39;55.17;;;31.67;;
5823;SDS011;2938;52.254;12.988;2023-12-07T09:05:05;50.63;;;29.67;;
5823;SDS011;2938;52.254;12.988;2023-12-07T09:07:31;54.58;;;31.40;;
5823;SDS011;2938;52.254;12.988;2023-12-07T09:09:56;56.05;;;31.33;;
5823;SDS011;2938;52.254;12.988;2023-12-07T09:12:21;59.00;;;32.63;;
5823;SDS011;2938;52.254;12.988;2023-12-07T09:14:46;59.45;;;31.38;;
5823;SDS011;2938;52.254;12.988;2023-12-07T09:17:12;70.57;;;34.33;;
5823;SDS011;2938;52.254;12.988;2023-12-07T09:19:37;66.03;;;32.55;;
5823;SDS011;2938;52.254;12.988;2023-12-07T09:22:02;57.67;;;30.60;;
5823;SDS011;2938;52.254;12.988;2023-12-07T09:24:28;66.00;;;33.08;;
5823;SDS011;2938;52.254;12.988;2023-12-07T09:26:53;70.38;;;32.42;;
5823;SDS011;2938;52.254;12.988;2023-12-07T09:29:18;61.47;;;29.00;;
5823;SDS011;2938;52.254;12.988;2023-12-07T09:31:44;68.00;;;36.10;;
5823;SDS011;2938;52.254;12.988;2023-12-07T09:34:09;59.67;;;32.83;;
5823;SDS011;2938;52.254;12.988;2023-12-07T09:36:34;61.22;;;32.88;;
5823;SDS011;2938;52.254;12.988;2023-12-07T09:39:00;63.00;;;33.92;;
5823;SDS011;2938;52.254;12.988;2023-12-07T09:41:26;57.35;;;30.90;;
5823;SDS011;2938;52.254;12.988;2023-12-07T09:43:53;56.80;;;30.45;;
5823;SDS011;2938;52.254;12.988;2023-12-07T09:46:20;68.45;;;33.80;;
5823;SDS011;2938;52.254;12.988;2023-12-07T09:48:45;66.28;;;31.77;;
5823;SDS011;2938;52.254;12.988;2023-12-07T09:51:15;63.45;;;30.42;;
5823;SDS011;2938;52.254;12.988;2023-12-07T09:53:40;65.75;;;32.47;;
5823;SDS011;2938;52.254;12.988;2023-12-07T09:56:07;62.63;;;34.65;;
5823;SDS011;2938;52.254;12.988;2023-12-07T09:58:33;71.25;;;35.47;;
5823;SDS011;2938;52.254;12.988;2023-12-07T10:00:58;58.35;;;30.85;;
5823;SDS011;2938;52.254;12.988;2023-12-07T10:03:24;72.65;;;33.53;;
5823;SDS011;2938;52.254;12.988;2023-12-07T10:05:56;57.58;;;31.02;;
5823;SDS011;2938;52.254;12.988;2023-12-07T10:08:28;60.50;;;31.23;;
5823;SDS011;2938;52.254;12.988;2023-12-07T10:11:09;56.80;;;30.95;;
5823;SDS011;2938;52.254;12.988;2023-12-07T10:13:37;58.55;;;30.08;;
5823;SDS011;2938;52.254;12.988;2023-12-07T10:16:09;60.50;;;31.35;;
5823;SDS011;2938;52.254;12.988;2023-12-07T10:18:36;65.93;;;32.95;;
5823;SDS011;2938;52.254;12.988;2023-12-07T10:21:01;51.10;;;28.10;;
5823;SDS011;2938;52.254;12.988;2023-12-07T10:23:27;63.35;;;33.53;;
5823;SDS011;2938;52.254;12.988;2023-12-07T10:25:53;58.90;;;30.67;;
5823;SDS011;2938;52.254;12.988;2023-12-07T10:28:18;64.00;;;34.17;;
5823;SDS011;2938;52.254;12.988;2023-12-07T10:30:45;60.83;;;32.30;;
5823;SDS011;2938;52.254;12.988;2023-12-07T10:33:11;64.30;;;33.42;;
5823;SDS011;2938;52.254;12.988;2023-12-07T10:35:44;62.40;;;34.15;;
5823;SDS011;2938;52.254;12.988;2023-12-07T10:38:09;43.50;;;23.95;;
5823;SDS011;2938;52.254;12.988;2023-12-07T10:40:34;62.60;;;30.67;;
5823;SDS011;2938;52.254;12.988;2023-12-07T10:43:01;59.42;;;31.00;;
5823;SDS011;2938;52.254;12.988;2023-12-07T10:45:30;69.28;;;33.97;;
5823;SDS011;2938;52.254;12.988;2023-12-07T10:48:02;62.63;;;31.45;;
5823;SDS011;2938;52.254;12.988;2023-12-07T10:50:30;60.15;;;31.85;;
5823;SDS011;2938;52.254;12.988;2023-12-07T10:52:57;59.25;;;32.03;;
5823;SDS011;2938;52.254;12.988;2023-12-07T10:55:28;57.88;;;32.55;;
5823;SDS011;2938;52.254;12.988;2023-12-07T10:57:54;63.97;;;33.38;;
5823;SDS011;2938;52.254;12.988;2023-12-07T11:00:20;70.97;;;32.47;;
5823;SDS011;2938;52.254;12.988;2023-12-07T11:02:49;61.47;;;33.92;;
5823;SDS011;2938;52.254;12.988;2023-12-07T11:05:17;73.38;;;34.65;;
5823;SDS011;2938;52.254;12.988;2023-12-07T11:07:52;69.13;;;36.53;;
5823;SDS011;2938;52.254;12.988;2023-12-07T11:15:37;70.15;;;36.63;;
5823;SDS011;2938;52.254;12.988;2023-12-07T11:18:02;70.45;;;36.72;;
5823;SDS011;2938;52.254;12.988;2023-12-07T11:20:44;70.82;;;35.13;;
5823;SDS011;2938;52.254;12.988;2023-12-07T11:23:11;66.88;;;34.42;;
5823;SDS011;2938;52.254;12.988;2023-12-07T11:25:37;67.93;;;37.83;;
5823;SDS011;2938;52.254;12.988;2023-12-07T11:28:03;84.95;;;38.65;;
5823;SDS011;2938;52.254;12.988;2023-12-07T11:30:34;80.95;;;37.13;;
5823;SDS011;2938;52.254;12.988;2023-12-07T11:33:01;80.97;;;36.17;;
5823;SDS011;2938;52.254;12.988;2023-12-07T11:35:28;78.05;;;37.72;;
5823;SDS011;2938;52.254;12.988;2023-12-07T11:38:03;98.28;;;40.53;;
5823;SDS011;2938;52.254;12.988;2023-12-07T11:40:31;104.15;;;41.65;;
5823;SDS011;2938;52.254;12.988;2023-12-07T11:42:58;90.75;;;35.92;;
5823;SDS011;2938;52.254;12.988;2023-12-07T11:45:46;85.28;;;39.38;;
5823;SDS011;2938;52.254;12.988;2023-12-07T11:48:13;97.88;;;41.45;;
5823;SDS011;2938;52.254;12.988;2023-12-07T11:51:00;107.38;;;42.70;;
5823;SDS011;2938;52.254;12.988;2023-12-07T11:53:30;102.53;;;39.63;;
5823;SDS011;2938;52.254;12.988;2023-12-07T11:56:01;107.50;;;41.13;;
5823;SDS011;2938;52.254;12.988;2023-12-07T11:58:29;93.28;;;38.95;;
5823;SDS011;2938;52.254;12.988;2023-12-07T12:00:55;111.15;;;39.03;;
5823;SDS011;2938;52.254;12.988;2023-12-07T12:03:25;95.05;;;39.45;;
5823;SDS011;2938;52.254;12.988;2023-12-07T12:05:51;107.85;;;40.10;;
5823;SDS011;2938;52.254;12.988;2023-12-07T12:08:17;126.47;;;39.33;;
5823;SDS011;2938;52.254;12.988;2023-12-07T12:10:43;103.45;;;40.00;;
5823;SDS011;2938;52.254;12.988;2023-12-07T12:13:09;100.55;;;38.83;;
5823;SDS011;2938;52.254;12.988;2023-12-07T12:15:34;108.90;;;36.50;;
5823;SDS011;2938;52.254;12.988;2023-12-07T12:18:00;93.65;;;38.70;;
5823;SDS011;2938;52.254;12.988;2023-12-07T12:20:26;106.53;;;38.53;;
5823;SDS011;2938;52.254;12.988;2023-12-07T12:22:52;125.03;;;40.97;;
5823;SDS011;2938;52.254;12.988;2023-12-07T12:25:20;98.15;;;37.03;;
5823;SDS011;2938;52.254;12.988;2023-12-07T12:27:47;128.57;;;37.08;;
5823;SDS011;2938;52.254;12.988;2023-12-07T12:30:13;115.07;;;35.65;;
5823;SDS011;2938;52.254;12.988;2023-12-07T12:32:45;131.85;;;35.60;;
5823;SDS011;2938;52.254;12.988;2023-12-07T12:35:11;108.22;;;32.38;;
5823;SDS011;2938;52.254;12.988;2023-12-07T12:37:38;157.80;;;39.47;;
5823;SDS011;2938;52.254;12.988;2023-12-07T12:40:07;100.47;;;34.78;;
5823;SDS011;2938;52.254;12.988;2023-12-07T12:42:33;133.35;;;37.42;;
5823;SDS011;2938;52.254;12.988;2023-12-07T12:44:58;121.43;;;36.28;;
5823;SDS011;2938;52.254;12.988;2023-12-07T12:47:24;167.07;;;41.70;;
5823;SDS011;2938;52.254;12.988;2023-12-07T12:49:50;97.97;;;32.67;;
5823;SDS011;2938;52.254;12.988;2023-12-07T12:52:16;90.05;;;32.33;;
5823;SDS011;2938;52.254;12.988;2023-12-07T12:54:45;106.82;;;34.75;;
5823;SDS011;2938;52.254;12.988;2023-12-07T12:57:11;100.97;;;34.78;;
5823;SDS011;2938;52.254;12.988;2023-12-07T12:59:37;112.13;;;36.30;;
5823;SDS011;2938;52.254;12.988;2023-12-07T13:02:02;104.00;;;36.25;;
5823;SDS011;2938;52.254;12.988;2023-12-07T13:04:29;106.05;;;34.70;;
5823;SDS011;2938;52.254;12.988;2023-12-07T13:06:55;127.85;;;36.63;;
5823;SDS011;2938;52.254;12.988;2023-12-07T13:09:20;102.60;;;33.38;;
5823;SDS011;2938;52.254;12.988;2023-12-07T13:11:46;127.65;;;36.55;;
5823;SDS011;2938;52.254;12.988;2023-12-07T13:14:12;132.80;;;38.53;;
5823;SDS011;2938;52.254;12.988;2023-12-07T13:16:37;122.65;;;39.10;;
5823;SDS011;2938;52.254;12.988;2023-12-07T13:19:02;120.18;;;37.95;;
5823;SDS011;2938;52.254;12.988;2023-12-07T13:21:28;100.05;;;35.17;;
5823;SDS011;2938;52.254;12.988;2023-12-07T13:23:53;103.15;;;37.80;;
5823;SDS011;2938;52.254;12.988;2023-12-07T13:26:19;109.30;;;37.40;;
5823;SDS011;2938;52.254;12.988;2023-12-07T13:28:45;122.60;;;37.70;;
5823;SDS011;2938;52.254;12.988;2023-12-07T13:31:10;99.70;;;38.47;;
5823;SDS011;2938;52.254;12.988;2023-12-07T13:33:36;158.32;;;43.30;;
5823;SDS011;2938;52.254;12.988;2023-12-07T13:36:03;116.72;;;41.15;;
5823;SDS011;2938;52.254;12.988;2023-12-07T13:38:29;111.40;;;40.47;;
5823;SDS011;2938;52.254;12.988;2023-12-07T13:40:55;106.57;;;40.08;;
5823;SDS011;2938;52.254;12.988;2023-12-07T13:43:21;103.35;;;39.38;;
5823;SDS011;2938;52.254;12.988;2023-12-07T13:45:49;92.07;;;36.40;;
5823;SDS011;2938;52.254;12.988;2023-12-07T13:48:14;88.47;;;35.58;;
5823;SDS011;2938;52.254;12.988;2023-12-07T13:50:40;97.82;;;36.28;;
5823;SDS011;2938;52.254;12.988;2023-12-07T13:53:06;91.07;;;36.20;;
5823;SDS011;2938;52.254;12.988;2023-12-07T13:55:35;87.15;;;37.22;;
5823;SDS011;2938;52.254;12.988;2023-12-07T13:58:02;98.13;;;38.67;;
5823;SDS011;2938;52.254;12.988;2023-12-07T14:00:27;105.97;;;38.20;;
5823;SDS011;2938;52.254;12.988;2023-12-07T14:02:53;108.10;;;43.70;;
5823;SDS011;2938;52.254;12.988;2023-12-07T14:05:18;94.63;;;37.13;;
5823;SDS011;2938;52.254;12.988;2023-12-07T14:07:44;93.82;;;39.30;;
5823;SDS011;2938;52.254;12.988;2023-12-07T14:10:10;84.05;;;33.72;;
5823;SDS011;2938;52.254;12.988;2023-12-07T14:12:36;92.68;;;36.30;;
5823;SDS011;2938;52.254;12.988;2023-12-07T14:15:02;90.55;;;37.92;;
5823;SDS011;2938;52.254;12.988;2023-12-07T14:17:28;131.73;;;53.20;;
5823;SDS011;2938;52.254;12.988;2023-12-07T14:19:57;90.20;;;38.60;;
5823;SDS011;2938;52.254;12.988;2023-12-07T14:22:22;85.10;;;34.22;;
5823;SDS011;2938;52.254;12.988;2023-12-07T14:24:47;89.22;;;34.72;;
5823;SDS011;2938;52.254;12.988;2023-12-07T14:27:13;89.80;;;37.22;;
5823;SDS011;2938;52.254;12.988;2023-12-07T14:29:40;100.20;;;42.35;;
5823;SDS011;2938;52.254;12.988;2023-12-07T14:32:05;103.32;;;39.70;;
5823;SDS011;2938;52.254;12.988;2023-12-07T14:34:30;122.93;;;44.83;;